createdAt,value
2023-07-21T00:00:41.038Z,9.280072
2023-07-21T00:01:41.102Z,9.279952
2023-07-21T00:02:41.077Z,9.279858
2023-07-21T00:03:41.022Z,9.279931
2023-07-21T00:04:40.945Z,9.279995
2023-07-21T00:05:40.924Z,9.279983
2023-07-21T00:06:40.906Z,9.280031
2023-07-21T00:07:40.916Z,9.280030
2023-07-21T00:08:40.890Z,9.279961
2023-07-21T00:09:40.839Z,9.279906
2023-07-21T00:10:40.816Z,9.279948
2023-07-21T00:11:40.837Z,9.279942
2023-07-21T00:12:40.792Z,9.279947
2023-07-21T00:13:40.750Z,9.280006
2023-07-21T00:14:40.728Z,9.280030
2023-07-21T00:15:40.721Z,9.280004
2023-07-21T00:16:40.701Z,9.279839
2023-07-21T00:17:40.786Z,9.279923
2023-07-21T00:18:40.634Z,9.279991
2023-07-21T00:19:40.611Z,9.280056
2023-07-21T00:20:40.627Z,9.280016
2023-07-21T00:21:40.596Z,9.279961
2023-07-21T00:22:40.560Z,9.279885
2023-07-21T00:23:40.524Z,9.279972
2023-07-21T00:24:40.519Z,9.279975
2023-07-21T00:25:40.534Z,9.279982
2023-07-21T00:26:40.448Z,9.279997
2023-07-21T00:27:40.425Z,9.280020
2023-07-21T00:28:40.399Z,9.280013
2023-07-21T00:29:40.379Z,9.280020
2023-07-21T00:30:40.391Z,9.279982
2023-07-21T00:31:40.547Z,9.279792
2023-07-21T00:32:40.357Z,9.279790
2023-07-21T00:33:40.291Z,9.279966
2023-07-21T00:34:40.297Z,9.279914
2023-07-21T00:35:40.273Z,9.279896
2023-07-21T00:36:40.224Z,9.280013
2023-07-21T00:37:40.225Z,9.280037
2023-07-21T00:38:40.182Z,9.279995
2023-07-21T00:39:40.187Z,9.279812
2023-07-21T00:40:40.137Z,9.279936
2023-07-21T00:41:40.117Z,9.279965
2023-07-21T00:42:40.090Z,9.279847
2023-07-21T00:43:40.068Z,9.279733
2023-07-21T00:44:40.077Z,9.279813
2023-07-21T00:45:40.088Z,9.279904
2023-07-21T00:46:40.036Z,9.279812
2023-07-21T00:47:39.997Z,9.279691
2023-07-21T00:48:39.981Z,9.279795
2023-07-21T00:49:39.963Z,9.279957
2023-07-21T00:50:39.907Z,9.279853
2023-07-21T00:51:39.883Z,9.279902
2023-07-21T00:52:39.866Z,9.279856
2023-07-21T00:53:39.876Z,9.279861
2023-07-21T00:54:39.821Z,9.279769
2023-07-21T00:55:39.812Z,9.279846
2023-07-21T00:56:39.776Z,9.279744
2023-07-21T00:57:39.756Z,9.279704
2023-07-21T00:58:39.769Z,9.279496
2023-07-21T00:59:39.740Z,9.279613
2023-07-21T01:00:39.716Z,9.279674
2023-07-21T01:01:39.668Z,9.279758
2023-07-21T01:02:39.818Z,9.279854
2023-07-21T01:03:39.727Z,9.279829
2023-07-21T01:04:39.589Z,9.279835
2023-07-21T01:05:40.575Z,9.279795
2023-07-21T01:06:39.555Z,9.279761
2023-07-21T01:07:39.628Z,9.279744
2023-07-21T01:08:39.511Z,9.279733
2023-07-21T01:09:39.482Z,9.279780
2023-07-21T01:10:39.476Z,9.279825
2023-07-21T01:11:39.448Z,9.279807
2023-07-21T01:12:39.442Z,9.279815
2023-07-21T01:13:39.397Z,9.279852
2023-07-21T01:14:39.368Z,9.279800
2023-07-21T01:15:39.350Z,9.279803
2023-07-21T01:16:39.367Z,9.279792
2023-07-21T01:17:40.064Z,9.279798
2023-07-21T01:18:40.287Z,9.279755
2023-07-21T01:19:39.257Z,9.279662
2023-07-21T01:20:39.243Z,9.279702
2023-07-21T01:21:39.247Z,9.279738
2023-07-21T01:22:39.194Z,9.279669
2023-07-21T01:23:39.180Z,9.279824
2023-07-21T01:24:39.250Z,9.279814
2023-07-21T01:25:39.134Z,9.279809
2023-07-21T01:26:39.137Z,9.279815
2023-07-21T01:27:39.076Z,9.279831
2023-07-21T01:28:39.074Z,9.279877
2023-07-21T01:29:39.033Z,9.279805
2023-07-21T01:30:39.071Z,9.279758
2023-07-21T01:31:39.021Z,9.279733
2023-07-21T01:32:39.000Z,9.279799
2023-07-21T01:33:38.946Z,9.279791
2023-07-21T01:34:38.928Z,9.279779
2023-07-21T01:35:38.930Z,9.279876
2023-07-21T01:36:38.873Z,9.279882
2023-07-21T01:37:38.851Z,9.279832
2023-07-21T01:38:38.830Z,9.279901
2023-07-21T01:39:38.854Z,9.279861
2023-07-21T01:40:38.853Z,9.279801
2023-07-21T01:41:38.770Z,9.279882
2023-07-21T01:42:38.739Z,9.279874
2023-07-21T01:43:38.739Z,9.279815
2023-07-21T01:44:38.757Z,9.279813
2023-07-21T01:45:38.672Z,9.279845
2023-07-21T01:46:38.694Z,9.279815
2023-07-21T01:47:38.642Z,9.279915
2023-07-21T01:48:38.602Z,9.279859
2023-07-21T01:49:38.618Z,9.279874
2023-07-21T01:50:38.556Z,9.279914
2023-07-21T01:51:38.541Z,9.279870
2023-07-21T01:52:38.530Z,9.279798
2023-07-21T01:53:38.516Z,9.279801
2023-07-21T01:54:38.504Z,9.279832
2023-07-21T01:55:38.450Z,9.279732
2023-07-21T01:56:38.430Z,9.279859
2023-07-21T01:57:38.402Z,9.279836
2023-07-21T01:58:38.405Z,9.279835
2023-07-21T01:59:38.360Z,9.279820
2023-07-21T02:00:50.770Z,9.279821
2023-07-21T02:01:40.339Z,9.279683
2023-07-21T02:02:38.349Z,9.279764
2023-07-21T02:03:38.409Z,9.279477
2023-07-21T02:04:38.260Z,9.279643
2023-07-21T02:05:38.232Z,9.279872
2023-07-21T02:06:38.212Z,9.279857
2023-07-21T02:07:38.215Z,9.279857
2023-07-21T02:08:38.193Z,9.279786
2023-07-21T02:09:38.142Z,9.279769
2023-07-21T02:10:38.115Z,9.279899
2023-07-21T02:11:38.098Z,9.279943
2023-07-21T02:12:38.109Z,9.279939
2023-07-21T02:13:38.062Z,9.279913
2023-07-21T02:14:38.033Z,9.279778
2023-07-21T02:15:38.017Z,9.279670
2023-07-21T02:16:38.004Z,9.279736
2023-07-21T02:17:38.101Z,9.279707
2023-07-21T02:18:37.988Z,9.279726
2023-07-21T02:19:37.927Z,9.279762
2023-07-21T02:20:37.911Z,9.279817
2023-07-21T02:21:37.924Z,9.279830
2023-07-21T02:22:37.886Z,9.279822
2023-07-21T02:23:37.856Z,9.279725
2023-07-21T02:24:37.836Z,9.279664
2023-07-21T02:25:37.787Z,9.279646
2023-07-21T02:26:37.799Z,9.279580
2023-07-21T02:27:37.742Z,9.279506
2023-07-21T02:28:37.741Z,9.279948
2023-07-21T02:29:37.695Z,9.280141
2023-07-21T02:30:37.694Z,9.280056
2023-07-21T02:31:37.743Z,9.279919
2023-07-21T02:32:37.652Z,9.279849
2023-07-21T02:33:37.612Z,9.279716
2023-07-21T02:34:37.593Z,9.279955
2023-07-21T02:35:37.606Z,9.279982
2023-07-21T02:36:37.610Z,9.279941
2023-07-21T02:37:37.539Z,9.279889
2023-07-21T02:38:37.516Z,9.279893
2023-07-21T02:39:37.486Z,9.279917
2023-07-21T02:40:37.487Z,9.279572
2023-07-21T02:41:37.433Z,9.279665
2023-07-21T02:42:37.417Z,9.279680
2023-07-21T02:43:37.387Z,9.279822
2023-07-21T02:44:37.365Z,9.279855
2023-07-21T02:45:37.370Z,9.279885
2023-07-21T02:46:37.389Z,9.279924
2023-07-21T02:47:37.314Z,9.279952
2023-07-21T02:48:37.277Z,9.279849
2023-07-21T02:49:37.286Z,9.279862
2023-07-21T02:50:37.278Z,9.279883
2023-07-21T02:51:37.210Z,9.279798
2023-07-21T02:52:37.206Z,9.279909
2023-07-21T02:53:37.184Z,9.279956
2023-07-21T02:54:37.184Z,9.280032
2023-07-21T02:55:37.120Z,9.279863
2023-07-21T02:56:37.098Z,9.279676
2023-07-21T02:57:37.080Z,9.279813
2023-07-21T02:58:37.061Z,9.279867
2023-07-21T02:59:37.062Z,9.279851
2023-07-21T03:00:37.013Z,9.279936
2023-07-21T03:01:37.008Z,9.280005
2023-07-21T03:02:37.153Z,9.279954
2023-07-21T03:03:37.081Z,9.279845
2023-07-21T03:04:36.957Z,9.279799
2023-07-21T03:05:36.908Z,9.279805
2023-07-21T03:06:36.893Z,9.279844
2023-07-21T03:07:36.864Z,9.279853
2023-07-21T03:08:36.873Z,9.280024
2023-07-21T03:09:36.828Z,9.280071
2023-07-21T03:10:36.803Z,9.280044
2023-07-21T03:11:36.798Z,9.279977
2023-07-21T03:12:36.792Z,9.279944
2023-07-21T03:13:36.766Z,9.279911
2023-07-21T03:14:36.716Z,9.279903
2023-07-21T03:15:36.723Z,9.279916
2023-07-21T03:16:36.688Z,9.279921
2023-07-21T03:17:36.720Z,9.279958
2023-07-21T03:18:36.627Z,9.279967
2023-07-21T03:19:36.604Z,9.280001
2023-07-21T03:20:36.600Z,9.279896
2023-07-21T03:21:36.671Z,9.280072
2023-07-21T03:22:36.575Z,9.280038
2023-07-21T03:23:36.527Z,9.279923
2023-07-21T03:24:36.518Z,9.279992
2023-07-21T03:25:36.475Z,9.279980
2023-07-21T03:26:36.520Z,9.280076
2023-07-21T03:27:36.470Z,9.279945
2023-07-21T03:28:36.415Z,9.279830
2023-07-21T03:29:36.395Z,9.279823
2023-07-21T03:30:36.370Z,9.279938
2023-07-21T03:31:36.468Z,9.279916
2023-07-21T03:32:36.368Z,9.279897
2023-07-21T03:33:36.315Z,9.279987
2023-07-21T03:34:36.289Z,9.280093
2023-07-21T03:35:36.269Z,9.280269
2023-07-21T03:36:36.268Z,9.280124
2023-07-21T03:37:36.218Z,9.280024
2023-07-21T03:38:36.197Z,9.279919
2023-07-21T03:39:36.176Z,9.279919
2023-07-21T03:40:36.189Z,9.279985
2023-07-21T03:41:36.172Z,9.279917
2023-07-21T03:42:36.129Z,9.279934
2023-07-21T03:43:36.093Z,9.280039
2023-07-21T03:44:36.073Z,9.279952
2023-07-21T03:45:36.104Z,9.279905
2023-07-21T03:46:36.082Z,9.279910
2023-07-21T03:47:36.031Z,9.279984
2023-07-21T03:48:36.018Z,9.279978
2023-07-21T03:49:35.972Z,9.279925
2023-07-21T03:50:35.981Z,9.279845
2023-07-21T03:51:35.923Z,9.279906
2023-07-21T03:52:35.904Z,9.279846
2023-07-21T03:53:37.487Z,9.279908
2023-07-21T03:54:36.900Z,9.279891
2023-07-21T03:55:35.870Z,9.279845
2023-07-21T03:56:35.818Z,9.279947
2023-07-21T03:57:35.796Z,9.279921
2023-07-21T03:58:35.778Z,9.279894
2023-07-21T03:59:35.805Z,9.279967
2023-07-21T04:00:35.732Z,9.279854
2023-07-21T04:01:35.774Z,9.279896
2023-07-21T04:02:35.866Z,9.279952
2023-07-21T04:03:35.756Z,9.279725
2023-07-21T04:04:35.837Z,9.279806
2023-07-21T04:05:35.640Z,9.279929
2023-07-21T04:06:35.610Z,9.280014
2023-07-21T04:07:35.589Z,9.279922
2023-07-21T04:08:35.605Z,9.279928
2023-07-21T04:09:35.577Z,9.279928
2023-07-21T04:10:35.525Z,9.279931
2023-07-21T04:11:35.507Z,9.279952
2023-07-21T04:12:35.503Z,9.279982
2023-07-21T04:13:35.511Z,9.279998
2023-07-21T04:14:35.456Z,9.279869
2023-07-21T04:15:35.431Z,9.279921
2023-07-21T04:16:35.479Z,9.279966
2023-07-21T04:17:35.401Z,9.279948
2023-07-21T04:18:35.392Z,9.279948
2023-07-21T04:19:35.344Z,9.279945
2023-07-21T04:20:35.320Z,9.279881
2023-07-21T04:21:35.307Z,9.279888
2023-07-21T04:22:35.320Z,9.279913
2023-07-21T04:23:35.291Z,9.279904
2023-07-21T04:24:35.405Z,9.279880
2023-07-21T04:25:35.222Z,9.279845
2023-07-21T04:26:35.193Z,9.279852
2023-07-21T04:27:35.206Z,9.279876
2023-07-21T04:28:35.160Z,9.279912
2023-07-21T04:29:37.192Z,9.279924
2023-07-21T04:30:36.118Z,9.279963
2023-07-21T04:31:35.209Z,9.280002
2023-07-21T04:32:35.134Z,9.280022
2023-07-21T04:33:35.050Z,9.279941
2023-07-21T04:34:35.028Z,9.279837
2023-07-21T04:35:35.018Z,9.279862
2023-07-21T04:36:35.020Z,9.279992
2023-07-21T04:37:34.963Z,9.279890
2023-07-21T04:38:34.956Z,9.279916
2023-07-21T04:39:34.925Z,9.279850
2023-07-21T04:40:34.897Z,9.279986
2023-07-21T04:41:34.910Z,9.280015
2023-07-21T04:42:34.863Z,9.279981
2023-07-21T04:43:34.853Z,9.279986
2023-07-21T04:44:34.818Z,9.279956
2023-07-21T04:45:34.825Z,9.279990
2023-07-21T04:46:34.835Z,9.279850
2023-07-21T04:47:34.806Z,9.279934
2023-07-21T04:48:34.733Z,9.279976
2023-07-21T04:49:34.715Z,9.279963
2023-07-21T04:50:34.715Z,9.279883
2023-07-21T04:51:34.676Z,9.279883
2023-07-21T04:52:34.646Z,9.279901
2023-07-21T04:53:34.619Z,9.279912
2023-07-21T04:54:34.600Z,9.279909
2023-07-21T04:55:34.613Z,9.279913
2023-07-21T04:56:34.556Z,9.279883
2023-07-21T04:57:34.536Z,9.279895
2023-07-21T04:58:34.515Z,9.279894
2023-07-21T04:59:34.545Z,9.279870
2023-07-21T05:00:34.507Z,9.279820
2023-07-21T05:01:34.464Z,9.279838
2023-07-21T05:02:34.496Z,9.279901
2023-07-21T05:03:34.506Z,9.279905
2023-07-21T05:04:34.414Z,9.279900
2023-07-21T05:05:34.364Z,9.279865
2023-07-21T05:06:34.347Z,9.279860
2023-07-21T05:07:34.324Z,9.279892
2023-07-21T05:08:34.337Z,9.279984
2023-07-21T05:09:34.314Z,9.279940
2023-07-21T05:10:34.266Z,9.279899
2023-07-21T05:11:34.247Z,9.279924
2023-07-21T05:12:34.228Z,9.279913
2023-07-21T05:13:34.235Z,9.279852
2023-07-21T05:14:34.209Z,9.279928
2023-07-21T05:15:34.157Z,9.279916
2023-07-21T05:16:34.141Z,9.279910
2023-07-21T05:17:34.134Z,9.279845
2023-07-21T05:18:34.122Z,9.279902
2023-07-21T05:19:34.072Z,9.279904
2023-07-21T05:20:34.054Z,9.279966
2023-07-21T05:21:34.060Z,9.279849
2023-07-21T05:22:34.036Z,9.279872
2023-07-21T05:23:34.022Z,9.279922
2023-07-21T05:24:34.025Z,9.280007
2023-07-21T05:25:33.953Z,9.279968
2023-07-21T05:26:33.920Z,9.279944
2023-07-21T05:27:33.951Z,9.279871
2023-07-21T05:28:33.875Z,9.279833
2023-07-21T05:29:33.867Z,9.279874
2023-07-21T05:30:33.835Z,9.279908
2023-07-21T05:31:33.895Z,9.279895
2023-07-21T05:32:33.962Z,9.279951
2023-07-21T05:33:33.773Z,9.279945
2023-07-21T05:34:33.751Z,9.279868
2023-07-21T05:35:33.735Z,9.279796
2023-07-21T05:36:33.744Z,9.279818
2023-07-21T05:37:33.717Z,9.279927
2023-07-21T05:38:33.675Z,9.280147
2023-07-21T05:39:33.648Z,9.280218
2023-07-21T05:40:33.625Z,9.280098
2023-07-21T05:41:33.646Z,9.279854
2023-07-21T05:42:35.007Z,9.279864
2023-07-21T05:43:33.569Z,9.279838
2023-07-21T05:44:33.568Z,9.279804
2023-07-21T05:45:33.518Z,9.279883
2023-07-21T05:46:33.572Z,9.279830
2023-07-21T05:47:33.503Z,9.279859
2023-07-21T05:48:33.449Z,9.279895
2023-07-21T05:49:33.432Z,9.279957
2023-07-21T05:50:33.440Z,9.279940
2023-07-21T05:51:33.409Z,9.279854
2023-07-21T05:52:33.393Z,9.279873
2023-07-21T05:53:33.366Z,9.279730
2023-07-21T05:54:33.313Z,9.279870
2023-07-21T05:55:33.328Z,9.279972
2023-07-21T05:56:33.279Z,9.279861
2023-07-21T05:57:33.256Z,9.279873
2023-07-21T05:58:33.241Z,9.279918
2023-07-21T05:59:33.249Z,9.279883
2023-07-21T06:00:33.260Z,9.279915
2023-07-21T06:01:33.166Z,9.279903
2023-07-21T06:02:33.176Z,9.279908
2023-07-21T06:03:33.227Z,9.279964
2023-07-21T06:04:33.162Z,9.279966
2023-07-21T06:05:33.089Z,9.279952
2023-07-21T06:06:33.069Z,9.279887
2023-07-21T06:07:33.038Z,9.279902
2023-07-21T06:08:33.018Z,9.279999
2023-07-21T06:09:33.030Z,9.279943
2023-07-21T06:10:33.974Z,9.279910
2023-07-21T06:11:32.952Z,9.279909
2023-07-21T06:12:32.937Z,9.279919
2023-07-21T06:13:32.961Z,9.279934
2023-07-21T06:14:32.922Z,9.279909
2023-07-21T06:15:32.876Z,9.280005
2023-07-21T06:16:32.864Z,9.280007
2023-07-21T06:17:32.832Z,9.280007
2023-07-21T06:18:34.379Z,9.279958
2023-07-21T06:19:32.790Z,9.280051
2023-07-21T06:20:32.764Z,9.280071
2023-07-21T06:21:32.746Z,9.279988
2023-07-21T06:22:32.732Z,9.279990
2023-07-21T06:23:32.730Z,9.280088
2023-07-21T06:24:32.706Z,9.280000
2023-07-21T06:25:32.660Z,9.279982
2023-07-21T06:26:32.636Z,9.279980
2023-07-21T06:27:32.660Z,9.280059
2023-07-21T06:28:32.623Z,9.280068
2023-07-21T06:29:32.572Z,9.279990
2023-07-21T06:30:32.572Z,9.279996
2023-07-21T06:31:32.524Z,9.279872
2023-07-21T06:32:32.569Z,9.279924
2023-07-21T06:33:32.504Z,9.279965
2023-07-21T06:34:32.464Z,9.279904
2023-07-21T06:35:32.448Z,9.279868
2023-07-21T06:36:32.423Z,9.279829
2023-07-21T06:37:32.429Z,9.279935
2023-07-21T06:38:32.386Z,9.279907
2023-07-21T06:39:32.361Z,9.280048
2023-07-21T06:40:32.344Z,9.279818
2023-07-21T06:41:32.478Z,9.279885
2023-07-21T06:42:32.345Z,9.280042
2023-07-21T06:43:32.276Z,9.279995
2023-07-21T06:44:32.261Z,9.279960
2023-07-21T06:45:32.239Z,9.280008
2023-07-21T06:46:32.271Z,9.279877
2023-07-21T06:47:34.341Z,9.280066
2023-07-21T06:48:33.174Z,9.279923
2023-07-21T06:49:32.174Z,9.279876
2023-07-21T06:50:32.139Z,9.279982
2023-07-21T06:51:32.136Z,9.279879
2023-07-21T06:52:32.085Z,9.279920
2023-07-21T06:53:32.076Z,9.279952
2023-07-21T06:54:32.063Z,9.279904
2023-07-21T06:55:32.053Z,9.279902
2023-07-21T06:56:32.036Z,9.280000
2023-07-21T06:57:31.987Z,9.279954
2023-07-21T06:58:31.963Z,9.280011
2023-07-21T06:59:31.941Z,9.279925
2023-07-21T07:00:31.949Z,9.279961
2023-07-21T07:01:31.906Z,9.279935
2023-07-21T07:02:31.908Z,9.279993
2023-07-21T07:03:31.888Z,9.280132
2023-07-21T07:04:31.863Z,9.279893
2023-07-21T07:05:31.893Z,9.279954
2023-07-21T07:06:31.792Z,9.279902
2023-07-21T07:07:31.774Z,9.280003
2023-07-21T07:08:31.748Z,9.279971
2023-07-21T07:09:31.762Z,9.279982
2023-07-21T07:10:31.734Z,9.279862
2023-07-21T07:11:31.689Z,9.279902
2023-07-21T07:12:31.665Z,9.279902
2023-07-21T07:13:31.644Z,9.279941
2023-07-21T07:14:31.653Z,9.279989
2023-07-21T07:15:31.621Z,9.279976
2023-07-21T07:16:31.605Z,9.280063
2023-07-21T07:17:31.600Z,9.280059
2023-07-21T07:18:31.574Z,9.279832
2023-07-21T07:19:31.565Z,9.279896
2023-07-21T07:20:31.507Z,9.279889
2023-07-21T07:21:31.475Z,9.279883
2023-07-21T07:22:31.462Z,9.279892
2023-07-21T07:23:31.474Z,9.279936
2023-07-21T07:24:31.449Z,9.279976
2023-07-21T07:25:31.444Z,9.279936
2023-07-21T07:26:31.372Z,9.279885
2023-07-21T07:27:31.359Z,9.279814
2023-07-21T07:28:31.365Z,9.279943
2023-07-21T07:29:31.308Z,9.279904
2023-07-21T07:30:31.368Z,9.280029
2023-07-21T07:31:31.281Z,9.279973
2023-07-21T07:32:31.312Z,9.279928
2023-07-21T07:33:31.251Z,9.279839
2023-07-21T07:34:31.236Z,9.279892
2023-07-21T07:35:31.186Z,9.279917
2023-07-21T07:36:31.151Z,9.279944
2023-07-21T07:37:31.171Z,9.279951
2023-07-21T07:38:31.118Z,9.279974
2023-07-21T07:39:31.097Z,9.279882
2023-07-21T07:40:31.070Z,9.279922
2023-07-21T07:41:31.058Z,9.279979
2023-07-21T07:42:31.105Z,9.279856
2023-07-21T07:43:31.000Z,9.279955
2023-07-21T07:44:30.985Z,9.280012
2023-07-21T07:45:31.247Z,9.280004
2023-07-21T07:46:31.015Z,9.280039
2023-07-21T07:47:30.967Z,9.280037
2023-07-21T07:48:31.892Z,9.279939
2023-07-21T07:49:30.861Z,9.279950
2023-07-21T07:50:30.852Z,9.280036
2023-07-21T07:51:30.853Z,9.279962
2023-07-21T07:52:30.801Z,9.279921
2023-07-21T07:53:30.829Z,9.279922
2023-07-21T07:54:30.758Z,9.279960
2023-07-21T07:55:30.751Z,9.279934
2023-07-21T07:56:30.752Z,9.279946
2023-07-21T07:57:30.706Z,9.279943
2023-07-21T07:58:30.855Z,9.279961
2023-07-21T07:59:30.944Z,9.279939
2023-07-21T08:00:30.663Z,9.279866
2023-07-21T08:01:30.653Z,9.279818
2023-07-21T08:02:30.605Z,9.279820
2023-07-21T08:03:30.701Z,9.279821
2023-07-21T08:04:30.616Z,9.279744
2023-07-21T08:05:30.552Z,9.279881
2023-07-21T08:06:31.048Z,9.279896
2023-07-21T08:07:31.484Z,9.279711
2023-07-21T08:08:30.472Z,9.279796
2023-07-21T08:09:30.455Z,9.279891
2023-07-21T08:10:30.460Z,9.279842
2023-07-21T08:11:30.401Z,9.279991
2023-07-21T08:12:30.398Z,9.279898
2023-07-21T08:13:30.364Z,9.279909
2023-07-21T08:14:30.375Z,9.279807
2023-07-21T08:15:30.358Z,9.279923
2023-07-21T08:16:30.329Z,9.280023
2023-07-21T08:17:30.398Z,9.279911
2023-07-21T08:18:30.269Z,9.279937
2023-07-21T08:19:30.276Z,9.279923
2023-07-21T08:20:30.229Z,9.279963
2023-07-21T08:21:30.315Z,9.279970
2023-07-21T08:22:30.197Z,9.279953
2023-07-21T08:23:30.691Z,9.279899
2023-07-21T08:24:31.222Z,9.279894
2023-07-21T08:25:30.137Z,9.279940
2023-07-21T08:26:30.116Z,9.279990
2023-07-21T08:27:30.096Z,9.279940
2023-07-21T08:28:30.106Z,9.279953
2023-07-21T08:29:30.085Z,9.279935
2023-07-21T08:30:32.474Z,9.279971
2023-07-21T08:31:31.051Z,9.279954
2023-07-21T08:32:30.049Z,9.279945
2023-07-21T08:33:30.012Z,9.279929
2023-07-21T08:34:29.965Z,9.279865
2023-07-21T08:35:29.945Z,9.279812
2023-07-21T08:36:36.882Z,9.279780
2023-07-21T08:37:31.909Z,9.279887
2023-07-21T08:38:29.956Z,9.279924
2023-07-21T08:39:29.878Z,9.279891
2023-07-21T08:40:29.893Z,9.279731
2023-07-21T08:41:29.839Z,9.279882
2023-07-21T08:42:29.859Z,9.279875
2023-07-21T08:43:29.834Z,9.279902
2023-07-21T08:44:29.788Z,9.279854
2023-07-21T08:45:29.770Z,9.279865
2023-07-21T08:46:29.934Z,9.279920
2023-07-21T08:47:30.673Z,9.279900
2023-07-21T08:48:29.726Z,9.279857
2023-07-21T08:49:29.694Z,9.279765
2023-07-21T08:50:29.692Z,9.279809
2023-07-21T08:51:29.661Z,9.279859
2023-07-21T08:52:29.683Z,9.279755
2023-07-21T08:53:29.651Z,9.279784
2023-07-21T08:54:29.610Z,9.279848
2023-07-21T08:55:29.674Z,9.279820
2023-07-21T08:56:29.598Z,9.279870
2023-07-21T08:57:29.592Z,9.279942
2023-07-21T08:58:29.545Z,9.279972
2023-07-21T08:59:29.523Z,9.279957
2023-07-21T09:00:29.504Z,9.279882
2023-07-21T09:01:29.568Z,9.279901
2023-07-21T09:02:29.470Z,9.279911
2023-07-21T09:03:29.550Z,9.279844
2023-07-21T09:04:29.420Z,9.279811
2023-07-21T09:05:29.580Z,9.279917
2023-07-21T09:06:29.416Z,9.279931
2023-07-21T09:07:29.363Z,9.279899
2023-07-21T09:08:29.377Z,9.279954
2023-07-21T09:09:29.331Z,9.279939
2023-07-21T09:10:29.340Z,9.279986
2023-07-21T09:11:29.298Z,9.279984
2023-07-21T09:12:29.281Z,9.279952
2023-07-21T09:13:29.265Z,9.279898
2023-07-21T09:14:29.236Z,9.279918
2023-07-21T09:15:29.294Z,9.279882
2023-07-21T09:16:29.453Z,9.279808
2023-07-21T09:17:29.211Z,9.279886
2023-07-21T09:18:29.180Z,9.279874
2023-07-21T09:19:29.171Z,9.279868
2023-07-21T09:20:29.171Z,9.279840
2023-07-21T09:21:29.105Z,9.279891
2023-07-21T09:22:29.110Z,9.279811
2023-07-21T09:23:29.064Z,9.279858
2023-07-21T09:24:29.168Z,9.279881
2023-07-21T09:25:29.031Z,9.279799
2023-07-21T09:26:29.347Z,9.279675
2023-07-21T09:27:28.996Z,9.279726
2023-07-21T09:28:28.973Z,9.279866
2023-07-21T09:29:29.048Z,9.279845
2023-07-21T09:30:28.933Z,9.279906
2023-07-21T09:31:28.959Z,9.279866
2023-07-21T09:32:28.943Z,9.279834
2023-07-21T09:33:28.909Z,9.279869
2023-07-21T09:34:28.892Z,9.279890
2023-07-21T09:35:28.838Z,9.279896
2023-07-21T09:36:29.109Z,9.279907
2023-07-21T09:37:28.804Z,9.279868
2023-07-21T09:38:28.820Z,9.279884
2023-07-21T09:39:28.776Z,9.279963
2023-07-21T09:40:28.766Z,9.280021
2023-07-21T09:41:28.726Z,9.279960
2023-07-21T09:42:28.756Z,9.279872
2023-07-21T09:43:28.717Z,9.279862
2023-07-21T09:44:28.673Z,9.279901
2023-07-21T09:45:28.647Z,9.279737
2023-07-21T09:46:28.660Z,9.279825
2023-07-21T09:47:28.799Z,9.279914
2023-07-21T09:48:28.590Z,9.279957
2023-07-21T09:49:28.569Z,9.279998
2023-07-21T09:50:28.554Z,9.280046
2023-07-21T09:51:28.537Z,9.280034
2023-07-21T09:52:28.562Z,9.280028
2023-07-21T09:53:28.517Z,9.280051
2023-07-21T09:54:28.480Z,9.279974
2023-07-21T09:55:28.463Z,9.279927
2023-07-21T09:56:28.722Z,9.279954
2023-07-21T09:57:28.451Z,9.279971
2023-07-21T09:58:28.401Z,9.279858
2023-07-21T09:59:28.445Z,9.279939
2023-07-21T10:00:28.403Z,9.279873
2023-07-21T10:01:28.852Z,9.279941
2023-07-21T10:02:28.355Z,9.280031
2023-07-21T10:03:28.348Z,9.280066
2023-07-21T10:04:28.282Z,9.280112
2023-07-21T10:05:28.275Z,9.280028
2023-07-21T10:06:28.278Z,9.280019
2023-07-21T10:07:28.223Z,9.279906
2023-07-21T10:08:28.204Z,9.279919
2023-07-21T10:09:28.191Z,9.279936
2023-07-21T10:10:28.200Z,9.280017
2023-07-21T10:11:28.445Z,9.279947
2023-07-21T10:12:28.131Z,9.279945
2023-07-21T10:13:28.118Z,9.280019
2023-07-21T10:14:28.104Z,9.280026
2023-07-21T10:15:28.173Z,9.280074
2023-07-21T10:16:28.129Z,9.280076
2023-07-21T10:17:28.043Z,9.279989
2023-07-21T10:18:28.016Z,9.280020
2023-07-21T10:19:28.024Z,9.280002
2023-07-21T10:20:29.011Z,9.280055
2023-07-21T10:21:28.122Z,9.280075
2023-07-21T10:22:27.940Z,9.280054
2023-07-21T10:23:27.930Z,9.280016
2023-07-21T10:24:28.081Z,9.279979
2023-07-21T10:25:27.886Z,9.279959
2023-07-21T10:26:27.877Z,9.279997
2023-07-21T10:27:27.862Z,9.279968
2023-07-21T10:28:27.834Z,9.280002
2023-07-21T10:29:27.852Z,9.279943
2023-07-21T10:30:27.795Z,9.279988
2023-07-21T10:31:28.632Z,9.279967
2023-07-21T10:32:27.789Z,9.279943
2023-07-21T10:33:27.800Z,9.280005
2023-07-21T10:34:27.751Z,9.279986
2023-07-21T10:35:27.704Z,9.280023
2023-07-21T10:36:27.682Z,9.279878
2023-07-21T10:37:27.665Z,9.279924
2023-07-21T10:38:27.691Z,9.279965
2023-07-21T10:39:27.628Z,9.279975
2023-07-21T10:40:27.600Z,9.279978
2023-07-21T10:41:27.767Z,9.280009
2023-07-21T10:42:27.611Z,9.279970
2023-07-21T10:43:27.587Z,9.279914
2023-07-21T10:44:27.537Z,9.280005
2023-07-21T10:45:27.520Z,9.280036
2023-07-21T10:46:30.243Z,9.280082
2023-07-21T10:47:27.593Z,9.279997
2023-07-21T10:48:27.507Z,9.280004
2023-07-21T10:49:27.478Z,9.279971
2023-07-21T10:50:27.434Z,9.279947
2023-07-21T10:51:27.701Z,9.280072
2023-07-21T10:52:27.422Z,9.280035
2023-07-21T10:53:27.373Z,9.280085
2023-07-21T10:54:27.356Z,9.280017
2023-07-21T10:55:27.338Z,9.280046
2023-07-21T10:56:27.325Z,9.280058
2023-07-21T10:57:27.332Z,9.280058
2023-07-21T10:58:27.305Z,9.280082
2023-07-21T10:59:27.266Z,9.280126
2023-07-21T11:00:27.251Z,9.280114
2023-07-21T11:01:27.479Z,9.280132
2023-07-21T11:02:27.280Z,9.280053
2023-07-21T11:03:27.276Z,9.279956
2023-07-21T11:04:27.173Z,9.279928
2023-07-21T11:05:27.185Z,9.280014
2023-07-21T11:06:27.182Z,9.279969
2023-07-21T11:07:27.115Z,9.279964
2023-07-21T11:08:27.115Z,9.279961
2023-07-21T11:09:27.091Z,9.279997
2023-07-21T11:10:27.072Z,9.280116
2023-07-21T11:11:27.386Z,9.280098
2023-07-21T11:12:27.021Z,9.280017
2023-07-21T11:13:27.006Z,9.280002
2023-07-21T11:14:26.992Z,9.280045
2023-07-21T11:15:26.998Z,9.280005
2023-07-21T11:16:26.999Z,9.280041
2023-07-21T11:17:26.979Z,9.280024
2023-07-21T11:18:26.912Z,9.280003
2023-07-21T11:19:26.908Z,9.280035
2023-07-21T11:20:26.907Z,9.279961
2023-07-21T11:21:27.243Z,9.280025
2023-07-21T11:22:26.858Z,9.280095
2023-07-21T11:23:26.832Z,9.279950
2023-07-21T11:24:26.957Z,9.279950
2023-07-21T11:25:26.812Z,9.279966
2023-07-21T11:26:26.784Z,9.280039
2023-07-21T11:27:26.748Z,9.280118
2023-07-21T11:28:26.730Z,9.280044
2023-07-21T11:29:26.740Z,9.279878
2023-07-21T11:30:26.681Z,9.279957
2023-07-21T11:31:26.982Z,9.279946
2023-07-21T11:32:26.704Z,9.279926
2023-07-21T11:33:26.644Z,9.280036
2023-07-21T11:34:26.640Z,9.280041
2023-07-21T11:35:26.586Z,9.280030
2023-07-21T11:36:26.563Z,9.279939
2023-07-21T11:37:26.652Z,9.279872
2023-07-21T11:38:26.564Z,9.279920
2023-07-21T11:39:26.550Z,9.279978
2023-07-21T11:40:26.597Z,9.280010
2023-07-21T11:41:27.580Z,9.280036
2023-07-21T11:42:26.459Z,9.280020
2023-07-21T11:43:26.471Z,9.279909
2023-07-21T11:44:26.422Z,9.279985